createdAt,value
2022-10-17T00:01:07.441Z,99562.00
2022-10-17T00:02:39.750Z,99556.00
2022-10-17T00:04:13.311Z,99554.00
2022-10-17T00:05:49.874Z,99560.00
2022-10-17T00:07:23.142Z,99566.00
2022-10-17T00:08:56.751Z,99562.00
2022-10-17T00:10:29.228Z,99566.00
2022-10-17T00:12:03.468Z,99557.00
2022-10-17T00:13:37.089Z,99555.00
2022-10-17T00:15:14.189Z,99562.00
2022-10-17T00:16:48.079Z,99554.00
2022-10-17T00:18:21.857Z,99552.00
2022-10-17T00:19:55.049Z,99556.00
2022-10-17T00:21:29.680Z,99560.00
2022-10-17T00:23:03.239Z,99557.00
2022-10-17T00:24:35.548Z,99561.00
2022-10-17T00:26:09.197Z,99566.00
2022-10-17T00:27:43.537Z,99573.00
2022-10-17T00:29:16.895Z,99579.00
2022-10-17T00:30:57.772Z,99576.00
2022-10-17T00:32:31.296Z,99574.00
2022-10-17T00:34:04.932Z,99570.00
2022-10-17T00:35:39.790Z,99564.00
2022-10-17T00:37:14.417Z,99567.00
2022-10-17T00:38:52.087Z,99572.00
2022-10-17T00:40:26.328Z,99570.00
2022-10-17T00:41:58.845Z,99565.00
2022-10-17T00:43:55.475Z,99568.00
2022-10-17T00:45:31.533Z,99573.00
2022-10-17T00:47:08.441Z,99568.00
2022-10-17T00:48:43.340Z,99563.00
2022-10-17T00:50:17.095Z,99564.00
2022-10-17T00:51:55.155Z,99576.00
2022-10-17T00:53:30.088Z,99568.00
2022-10-17T00:55:12.844Z,99581.00
2022-10-17T00:56:49.468Z,99580.00
2022-10-17T00:58:23.069Z,99577.00
2022-10-17T00:59:58.396Z,99583.00
2022-10-17T01:01:37.221Z,99576.00
2022-10-17T01:03:15.958Z,99576.00
2022-10-17T01:04:56.421Z,99556.00
2022-10-17T01:06:33.704Z,99572.00
2022-10-17T01:08:13.075Z,99578.00
2022-10-17T01:09:52.197Z,99572.00
2022-10-17T01:11:46.998Z,99569.00
2022-10-17T01:13:31.583Z,99572.00
2022-10-17T01:15:15.947Z,99569.00
2022-10-17T01:17:04.490Z,99564.00
2022-10-17T01:18:59.693Z,99569.00
2022-10-17T01:21:19.633Z,99572.00
2022-10-17T01:23:13.951Z,99568.00
2022-10-17T01:25:17.316Z,99565.00
2022-10-17T01:27:29.725Z,99555.00
2022-10-17T01:29:37.513Z,99563.00
2022-10-17T01:31:17.396Z,99561.00
2022-10-17T01:32:58.553Z,99562.00
2022-10-17T01:34:40.916Z,99564.00
2022-10-17T01:36:26.976Z,99560.00
2022-10-17T01:38:11.135Z,99562.00
2022-10-17T01:39:51.201Z,99561.00
2022-10-17T01:41:37.122Z,99568.00
2022-10-17T01:43:19.213Z,99563.00
2022-10-17T01:45:00.872Z,99563.00
2022-10-17T01:46:39.078Z,99565.00
2022-10-17T01:48:20.092Z,99567.00
2022-10-17T01:49:57.548Z,99567.00
2022-10-17T01:51:36.461Z,99560.00
2022-10-17T01:53:16.505Z,99557.00
2022-10-17T01:54:55.545Z,99565.00
2022-10-17T01:56:32.493Z,99563.00
2022-10-17T01:58:13.442Z,99555.00
2022-10-17T01:59:53.160Z,99567.00
2022-10-17T02:01:34.834Z,99556.00
2022-10-17T02:03:20.485Z,99551.00
2022-10-17T02:06:37.408Z,99540.00
2022-10-17T02:08:25.520Z,99545.00
2022-10-17T02:09:58.819Z,99544.00
2022-10-17T02:11:35.227Z,99544.00
2022-10-17T02:13:19.552Z,99544.00
2022-10-17T02:15:11.125Z,99536.00
2022-10-17T02:16:57.104Z,99541.00
2022-10-17T02:19:07.198Z,99536.00
2022-10-17T02:20:52.734Z,99541.00
2022-10-17T02:22:40.055Z,99537.00
2022-10-17T02:24:30.869Z,99546.00
2022-10-17T02:26:12.403Z,99547.00
2022-10-17T02:27:55.825Z,99544.00
2022-10-17T02:29:35.201Z,99547.00
2022-10-17T02:31:16.276Z,99541.00
2022-10-17T02:32:59.569Z,99547.00
2022-10-17T02:34:42.477Z,99545.00
2022-10-17T02:36:23.010Z,99543.00
2022-10-17T02:37:58.864Z,99533.00
2022-10-17T02:39:33.816Z,99527.00
2022-10-17T02:41:12.605Z,99531.00
2022-10-17T02:42:47.484Z,99526.00
2022-10-17T02:44:21.863Z,99537.00
2022-10-17T02:45:58.887Z,99529.00
2022-10-17T02:47:37.855Z,99536.00
2022-10-17T02:49:21.736Z,99536.00
2022-10-17T02:51:09.404Z,99529.00
2022-10-17T02:52:51.969Z,99528.00
2022-10-17T02:54:35.686Z,99526.00
2022-10-17T02:56:19.032Z,99538.00
2022-10-17T02:57:57.708Z,99542.00
2022-10-17T03:00:27.581Z,99541.00
2022-10-17T03:02:06.322Z,99547.00
2022-10-17T03:03:39.706Z,99548.00
2022-10-17T03:05:17.093Z,99542.00
2022-10-17T03:06:52.224Z,99542.00
2022-10-17T03:08:25.299Z,99539.00
2022-10-17T03:10:00.187Z,99553.00
2022-10-17T03:11:36.960Z,99552.00
2022-10-17T03:13:10.712Z,99547.00
2022-10-17T03:14:46.695Z,99553.00
2022-10-17T03:16:19.923Z,99545.00
2022-10-17T03:17:53.360Z,99554.00
2022-10-17T03:19:29.708Z,99551.00
2022-10-17T03:21:03.273Z,99549.00
2022-10-17T03:22:38.211Z,99553.00
2022-10-17T03:24:12.560Z,99566.00
2022-10-17T03:25:45.799Z,99556.00
2022-10-17T03:27:20.868Z,99565.00
2022-10-17T03:28:54.628Z,99557.00
2022-10-17T03:30:30.481Z,99560.00
2022-10-17T03:32:05.383Z,99552.00
2022-10-17T03:33:39.551Z,99553.00
2022-10-17T03:35:15.061Z,99564.00
2022-10-17T03:36:53.987Z,99564.00
2022-10-17T03:38:28.711Z,99566.00
2022-10-17T03:40:02.199Z,99557.00
2022-10-17T03:41:36.198Z,99557.00
2022-10-17T03:43:11.412Z,99562.00
2022-10-17T03:44:46.046Z,99561.00
2022-10-17T03:46:19.678Z,99561.00
2022-10-17T03:47:53.511Z,99555.00
2022-10-17T03:49:26.919Z,99555.00
2022-10-17T03:51:02.787Z,99556.00
2022-10-17T03:52:37.095Z,99556.00
2022-10-17T03:54:11.965Z,99567.00
2022-10-17T03:55:45.903Z,99568.00
2022-10-17T03:57:19.713Z,99566.00
2022-10-17T03:58:53.836Z,99561.00
2022-10-17T04:00:27.561Z,99562.00
2022-10-17T04:02:03.837Z,99564.00
2022-10-17T04:03:37.139Z,99568.00
2022-10-17T04:05:10.911Z,99565.00
2022-10-17T04:06:44.580Z,99570.00
2022-10-17T04:08:18.685Z,99564.00
2022-10-17T04:10:11.308Z,99563.00
2022-10-17T04:11:44.699Z,99575.00
2022-10-17T04:13:19.094Z,99571.00
2022-10-17T04:14:53.103Z,99580.00
2022-10-17T04:16:27.978Z,99582.00
2022-10-17T04:18:06.735Z,99579.00
2022-10-17T04:19:40.688Z,99581.00
2022-10-17T04:21:15.606Z,99585.00
2022-10-17T04:22:49.330Z,99578.00
2022-10-17T04:24:22.805Z,99584.00
2022-10-17T04:26:07.628Z,99582.00
2022-10-17T04:27:41.001Z,99581.00
2022-10-17T04:29:15.219Z,99588.00
2022-10-17T04:30:58.395Z,99582.00
2022-10-17T04:32:38.716Z,99582.00
2022-10-17T04:34:20.400Z,99583.00
2022-10-17T04:35:59.213Z,99585.00
2022-10-17T04:37:32.512Z,99581.00
2022-10-17T04:39:08.806Z,99585.00
2022-10-17T04:40:42.730Z,99587.00
2022-10-17T04:42:17.427Z,99585.00
2022-10-17T04:43:51.469Z,99580.00
2022-10-17T04:45:25.776Z,99586.00
2022-10-17T04:47:04.556Z,99569.00
2022-10-17T04:48:38.510Z,99575.00
2022-10-17T04:50:12.068Z,99571.00
2022-10-17T04:51:52.427Z,99567.00
2022-10-17T04:53:39.837Z,99571.00
2022-10-17T04:55:13.271Z,99577.00
2022-10-17T04:56:48.491Z,99578.00
2022-10-17T04:58:23.333Z,99586.00
2022-10-17T04:59:57.863Z,99592.00
2022-10-17T05:01:51.458Z,99604.00
2022-10-17T05:03:25.279Z,99601.00
2022-10-17T05:04:58.799Z,99601.00
2022-10-17T05:06:33.709Z,99598.00
2022-10-17T05:08:27.168Z,99590.00
2022-10-17T05:10:00.547Z,99593.00
2022-10-17T05:11:35.051Z,99594.00
2022-10-17T05:13:08.577Z,99598.00
2022-10-17T05:14:43.954Z,99599.00
2022-10-17T05:16:17.188Z,99597.00
2022-10-17T05:17:52.757Z,99588.00
2022-10-17T05:19:26.343Z,99591.00
2022-10-17T05:21:00.790Z,99595.00
2022-10-17T05:22:38.244Z,99596.00
2022-10-17T05:24:16.112Z,99608.00
2022-10-17T05:25:49.478Z,99605.00
2022-10-17T05:27:22.866Z,99597.00
2022-10-17T05:28:56.277Z,99603.00
2022-10-17T05:30:35.305Z,99601.00
2022-10-17T05:32:13.691Z,99607.00
2022-10-17T05:33:47.423Z,99603.00
2022-10-17T05:35:21.429Z,99603.00
2022-10-17T05:36:54.741Z,99597.00
2022-10-17T05:38:30.429Z,99596.00
2022-10-17T05:40:04.162Z,99598.00
2022-10-17T05:41:37.772Z,99604.00
2022-10-17T05:43:11.430Z,99601.00
2022-10-17T05:44:44.927Z,99611.00
2022-10-17T05:46:21.020Z,99612.00
2022-10-17T05:47:54.299Z,99607.00
2022-10-17T05:49:45.969Z,99608.00
2022-10-17T05:51:20.955Z,99606.00
2022-10-17T05:52:55.211Z,99611.00
2022-10-17T05:54:29.389Z,99607.00
2022-10-17T05:56:06.300Z,99606.00
2022-10-17T05:57:39.764Z,99619.00
2022-10-17T05:59:17.123Z,99616.00
2022-10-17T06:01:02.546Z,99632.00
2022-10-17T06:02:38.459Z,99618.00
2022-10-17T06:04:12.251Z,99627.00
2022-10-17T06:05:45.547Z,99628.00
2022-10-17T06:07:18.348Z,99620.00
2022-10-17T06:08:51.788Z,99621.00
2022-10-17T06:10:30.884Z,99629.00
2022-10-17T06:12:05.442Z,99629.00
2022-10-17T06:13:39.272Z,99620.00
2022-10-17T06:15:18.677Z,99620.00
2022-10-17T06:16:57.828Z,99613.00
2022-10-17T06:18:33.045Z,99630.00
2022-10-17T06:20:08.416Z,99620.00
2022-10-17T06:21:41.640Z,99629.00
2022-10-17T06:23:20.209Z,99624.00
2022-10-17T06:25:02.174Z,99637.00
2022-10-17T06:26:36.237Z,99640.00
2022-10-17T06:28:12.892Z,99644.00
2022-10-17T06:29:46.430Z,99641.00
2022-10-17T06:31:20.093Z,99647.00
2022-10-17T06:32:53.867Z,99642.00
2022-10-17T06:34:28.968Z,99658.00
2022-10-17T06:36:01.567Z,99652.00
2022-10-17T06:37:38.217Z,99654.00
2022-10-17T06:39:15.445Z,99648.00
2022-10-17T06:40:57.699Z,99651.00
2022-10-17T06:42:31.005Z,99657.00
2022-10-17T06:44:28.412Z,99658.00
2022-10-17T06:46:21.715Z,99664.00
2022-10-17T06:48:03.719Z,99672.00
2022-10-17T06:49:58.387Z,99679.00
2022-10-17T06:51:38.738Z,99676.00
2022-10-17T06:53:15.086Z,99684.00
2022-10-17T06:54:57.057Z,99685.00
2022-10-17T06:56:39.036Z,99687.00
2022-10-17T06:58:34.618Z,99681.00
2022-10-17T07:00:28.278Z,99685.00
2022-10-17T07:02:03.568Z,99682.00
2022-10-17T07:03:37.979Z,99676.00
2022-10-17T07:05:12.848Z,99677.00
2022-10-17T07:06:46.376Z,99683.00
2022-10-17T07:08:24.407Z,99677.00
2022-10-17T07:09:57.681Z,99688.00
2022-10-17T07:11:31.384Z,99691.00
2022-10-17T07:13:04.915Z,99688.00
2022-10-17T07:14:40.259Z,99689.00
2022-10-17T07:16:14.973Z,99677.00
2022-10-17T07:17:51.353Z,99689.00
2022-10-17T07:19:26.857Z,99697.00
2022-10-17T07:21:02.038Z,99693.00
2022-10-17T07:22:36.503Z,99687.00
2022-10-17T07:24:10.383Z,99696.00
2022-10-17T07:25:45.054Z,99700.00
2022-10-17T07:27:18.546Z,99700.00
2022-10-17T07:28:56.001Z,99698.00
2022-10-17T07:30:52.093Z,99704.00
2022-10-17T07:32:28.222Z,99699.00
2022-10-17T07:34:01.874Z,99696.00
2022-10-17T07:35:35.646Z,99693.00
2022-10-17T07:37:10.564Z,99698.00
2022-10-17T07:38:47.110Z,99702.00
2022-10-17T07:40:20.611Z,99693.00
2022-10-17T07:41:54.144Z,99694.00
2022-10-17T07:43:30.198Z,99690.00
2022-10-17T07:45:06.803Z,99690.00
2022-10-17T07:46:40.524Z,99690.00
2022-10-17T07:48:13.823Z,99698.00
2022-10-17T07:49:47.355Z,99687.00
2022-10-17T07:51:21.923Z,99702.00
2022-10-17T07:52:56.545Z,99692.00
2022-10-17T07:54:29.855Z,99697.00
2022-10-17T07:56:07.619Z,99696.00
2022-10-17T07:57:41.019Z,99700.00
2022-10-17T07:59:14.420Z,99700.00
2022-10-17T08:00:48.912Z,99698.00
2022-10-17T08:02:25.964Z,99698.00
2022-10-17T08:04:01.182Z,99704.00
2022-10-17T08:05:35.164Z,99702.00
2022-10-17T08:07:20.661Z,99698.00
2022-10-17T08:08:59.507Z,99698.00
2022-10-17T08:10:32.951Z,99701.00
2022-10-17T08:12:07.271Z,99701.00
2022-10-17T08:13:42.589Z,99693.00
2022-10-17T08:15:15.931Z,99693.00
2022-10-17T08:16:49.372Z,99700.00
2022-10-17T08:18:22.830Z,99692.00
2022-10-17T08:19:56.345Z,99703.00
2022-10-17T08:21:30.857Z,99693.00
2022-10-17T08:23:04.237Z,99695.00
2022-10-17T08:24:39.301Z,99688.00
2022-10-17T08:26:16.704Z,99690.00
2022-10-17T08:27:50.584Z,99690.00
2022-10-17T08:29:23.921Z,99690.00
2022-10-17T08:31:04.833Z,99688.00
2022-10-17T08:32:38.241Z,99681.00
2022-10-17T08:34:11.516Z,99691.00
2022-10-17T08:35:44.956Z,99695.00
2022-10-17T08:37:18.531Z,99699.00
2022-10-17T08:38:53.089Z,99703.00
2022-10-17T08:40:35.283Z,99701.00
2022-10-17T08:42:43.169Z,99698.00
2022-10-17T08:44:31.579Z,99693.00
2022-10-17T08:46:08.915Z,99694.00
2022-10-17T08:47:46.556Z,99693.00
2022-10-17T08:49:32.591Z,99693.00
2022-10-17T08:51:16.495Z,99702.00
2022-10-17T08:52:55.326Z,99712.00
2022-10-17T08:54:45.908Z,99722.00
2022-10-17T08:56:43.941Z,99716.00
2022-10-17T08:58:22.891Z,99706.00
2022-10-17T08:59:56.730Z,99713.00
2022-10-17T09:01:43.819Z,99714.00
2022-10-17T09:03:39.553Z,99711.00
2022-10-17T09:05:42.489Z,99712.00
2022-10-17T09:07:27.451Z,99722.00
2022-10-17T09:09:19.205Z,99730.00
2022-10-17T09:10:59.042Z,99722.00
2022-10-17T09:12:42.775Z,99730.00
2022-10-17T09:15:05.529Z,99721.00
2022-10-17T09:17:00.359Z,99715.00
2022-10-17T09:18:39.027Z,99723.00
2022-10-17T09:20:18.923Z,99724.00
2022-10-17T09:21:59.376Z,99729.00
2022-10-17T09:23:46.819Z,99724.00
2022-10-17T09:25:22.174Z,99731.00
2022-10-17T09:26:57.353Z,99731.00
2022-10-17T09:28:37.128Z,99737.00
2022-10-17T09:30:45.173Z,99735.00
2022-10-17T09:32:25.151Z,99734.00
2022-10-17T09:34:03.975Z,99718.00
2022-10-17T09:35:39.048Z,99727.00
2022-10-17T09:37:16.513Z,99730.00
2022-10-17T09:38:54.415Z,99727.00
2022-10-17T09:40:33.828Z,99718.00
2022-10-17T09:42:07.155Z,99728.00
2022-10-17T09:43:42.053Z,99735.00
2022-10-17T09:45:24.656Z,99739.00
2022-10-17T09:47:16.244Z,99738.00
2022-10-17T09:48:56.887Z,99738.00
2022-10-17T09:50:34.711Z,99745.00
2022-10-17T09:52:15.887Z,99737.00
2022-10-17T09:53:54.934Z,99752.00
2022-10-17T09:55:38.977Z,99751.00
2022-10-17T09:57:15.227Z,99755.00
2022-10-17T09:58:54.407Z,99764.00
2022-10-17T10:00:32.299Z,99760.00
2022-10-17T10:02:20.867Z,99774.00
2022-10-17T10:04:11.095Z,99780.00
2022-10-17T10:06:00.515Z,99779.00
2022-10-17T10:07:37.768Z,99793.00
2022-10-17T10:09:24.909Z,99794.00
2022-10-17T10:11:13.770Z,99805.00
2022-10-17T10:13:06.882Z,99798.00
2022-10-17T10:14:45.120Z,99806.00
2022-10-17T10:16:25.265Z,99796.00
2022-10-17T10:17:59.777Z,99799.00
2022-10-17T10:19:37.020Z,99802.00
2022-10-17T10:21:14.281Z,99810.00
2022-10-17T10:23:15.894Z,99811.00
2022-10-17T10:25:09.819Z,99803.00
2022-10-17T10:26:47.678Z,99789.00
2022-10-17T10:28:24.295Z,99810.00
2022-10-17T10:29:59.128Z,99811.00
2022-10-17T10:31:37.805Z,99809.00
2022-10-17T10:33:13.566Z,99811.00
2022-10-17T10:34:53.319Z,99806.00
2022-10-17T10:36:27.037Z,99811.00
2022-10-17T10:38:03.542Z,99825.00
2022-10-17T10:39:47.624Z,99821.00
2022-10-17T10:41:21.552Z,99832.00
2022-10-17T10:43:04.025Z,99831.00
2022-10-17T10:44:41.976Z,99824.00
2022-10-17T10:46:23.092Z,99828.00
2022-10-17T10:47:59.517Z,99830.00
2022-10-17T10:49:34.096Z,99825.00
2022-10-17T10:51:16.705Z,99826.00
2022-10-17T10:53:10.987Z,99826.00
2022-10-17T10:54:56.584Z,99833.00
2022-10-17T10:56:37.981Z,99827.00
2022-10-17T10:58:43.039Z,99833.00
2022-10-17T11:00:22.642Z,99831.00
2022-10-17T11:02:05.501Z,99838.00
2022-10-17T11:03:47.535Z,99831.00
2022-10-17T11:05:31.999Z,99845.00
2022-10-17T11:07:14.556Z,99844.00
2022-10-17T11:08:55.279Z,99849.00
2022-10-17T11:10:38.467Z,99853.00
2022-10-17T11:12:21.792Z,99865.00
2022-10-17T11:14:02.834Z,99864.00
2022-10-17T11:15:43.962Z,99866.00
2022-10-17T11:17:31.857Z,99865.00
2022-10-17T11:19:14.551Z,99847.00
2022-10-17T11:20:58.393Z,99857.00
2022-10-17T11:22:37.333Z,99861.00
2022-10-17T11:24:22.325Z,99872.00
2022-10-17T11:26:00.059Z,99883.00
2022-10-17T11:27:35.185Z,99872.00
2022-10-17T11:29:11.977Z,99878.00
2022-10-17T11:30:52.583Z,99879.00
2022-10-17T11:32:35.157Z,99890.00
2022-10-17T11:34:19.462Z,99887.00
2022-10-17T11:35:59.054Z,99883.00
2022-10-17T11:37:41.014Z,99888.00
2022-10-17T11:39:21.661Z,99887.00
2022-10-17T11:41:00.580Z,99890.00
2022-10-17T11:42:41.523Z,99883.00
2022-10-17T11:44:23.511Z,99895.00
2022-10-17T11:46:02.377Z,99897.00
2022-10-17T11:47:46.197Z,99892.00
2022-10-17T11:53:13.354Z,99897.00
2022-10-17T11:54:54.944Z,99882.00
2022-10-17T11:56:43.237Z,99892.00
2022-10-17T11:58:40.252Z,99883.00
2022-10-17T12:00:28.885Z,99885.00
2022-10-17T12:02:11.031Z,99884.00
2022-10-17T12:04:03.533Z,99875.00
2022-10-17T12:05:51.505Z,99862.00
2022-10-17T12:07:39.374Z,99867.00
2022-10-17T12:09:25.527Z,99871.00
2022-10-17T12:11:08.404Z,99874.00
2022-10-17T12:12:41.666Z,99879.00
2022-10-17T12:14:45.011Z,99879.00
2022-10-17T12:16:51.391Z,99893.00
2022-10-17T12:18:27.541Z,99873.00
2022-10-17T12:20:36.888Z,99873.00
2022-10-17T12:22:26.253Z,99876.00
2022-10-17T12:23:59.734Z,99881.00
2022-10-17T12:27:43.812Z,99888.00
2022-10-17T12:29:30.948Z,99881.00
2022-10-17T12:31:12.117Z,99882.00
2022-10-17T12:33:06.561Z,99879.00
2022-10-17T12:34:40.875Z,99873.00
2022-10-17T12:36:48.267Z,99877.00
2022-10-17T12:38:28.265Z,99879.00
2022-10-17T12:40:01.567Z,99881.00
2022-10-17T12:41:56.880Z,99879.00
2022-10-17T12:43:55.015Z,99876.00
2022-10-17T12:45:51.393Z,99887.00
2022-10-17T12:47:40.307Z,99886.00
2022-10-17T12:49:40.938Z,99884.00
2022-10-17T12:51:35.658Z,99888.00
2022-10-17T12:53:21.610Z,99897.00
2022-10-17T12:55:13.975Z,99893.00
2022-10-17T12:56:50.620Z,99894.00
2022-10-17T12:58:24.738Z,99882.00
2022-10-17T12:59:59.255Z,99888.00
2022-10-17T13:01:37.774Z,99886.00
2022-10-17T13:03:18.236Z,99877.00
2022-10-17T13:05:06.601Z,99888.00
2022-10-17T13:06:48.259Z,99902.00
2022-10-17T13:08:26.669Z,99902.00
2022-10-17T13:10:04.965Z,99905.00
2022-10-17T13:11:40.749Z,99901.00
2022-10-17T13:13:19.927Z,99906.00
2022-10-17T13:14:55.479Z,99901.00
2022-10-17T13:16:31.428Z,99912.00
2022-10-17T13:18:05.465Z,99902.00
2022-10-17T13:19:45.409Z,99906.00
2022-10-17T13:21:21.723Z,99911.00
2022-10-17T13:22:57.404Z,99908.00
2022-10-17T13:24:35.059Z,99920.00
2022-10-17T13:26:16.587Z,99915.00
2022-10-17T13:27:51.454Z,99914.00
2022-10-17T13:29:25.875Z,99918.00
2022-10-17T13:30:59.461Z,99913.00
2022-10-17T13:32:38.882Z,99923.00
2022-10-17T13:34:19.856Z,99929.00
2022-10-17T13:36:00.452Z,99928.00
2022-10-17T13:37:36.777Z,99930.00
2022-10-17T13:39:17.225Z,99936.00
2022-10-17T13:41:01.601Z,99940.00
2022-10-17T13:42:42.479Z,99934.00
2022-10-17T13:44:20.607Z,99939.00
2022-10-17T13:46:02.286Z,99944.00
2022-10-17T13:47:43.033Z,99945.00
2022-10-17T13:49:26.193Z,99950.00
2022-10-17T13:51:07.902Z,99951.00
2022-10-17T13:52:43.805Z,99962.00
2022-10-17T13:54:40.428Z,99950.00
2022-10-17T13:56:29.560Z,99965.00
2022-10-17T13:58:17.808Z,99960.00
2022-10-17T13:59:59.965Z,99968.00
2022-10-17T14:01:34.159Z,99969.00
2022-10-17T14:03:07.741Z,99964.00
2022-10-17T14:05:11.792Z,99968.00
2022-10-17T14:06:35.352Z,99968.00
2022-10-17T14:08:23.056Z,99966.00
2022-10-17T14:09:57.123Z,99967.00
2022-10-17T14:11:38.832Z,99965.00
2022-10-17T14:13:23.698Z,99968.00
2022-10-17T14:15:10.054Z,99969.00
2022-10-17T14:16:45.483Z,99970.00
2022-10-17T14:18:22.589Z,99971.00
2022-10-17T14:20:29.697Z,99974.00
2022-10-17T14:22:17.367Z,99980.00
2022-10-17T14:23:52.760Z,99980.00
2022-10-17T14:25:31.817Z,99968.00
2022-10-17T14:27:30.661Z,99975.00
2022-10-17T14:29:15.212Z,99986.00
2022-10-17T14:30:57.880Z,99983.00
2022-10-17T14:32:35.060Z,99978.00
2022-10-17T14:34:21.532Z,99975.00
2022-10-17T14:35:57.668Z,99978.00
2022-10-17T14:37:44.684Z,99977.00
2022-10-17T14:39:23.120Z,99976.00
2022-10-17T14:43:07.044Z,99968.00
2022-10-17T14:44:40.319Z,99971.00
2022-10-17T14:46:16.884Z,99973.00
2022-10-17T14:47:51.948Z,99969.00
2022-10-17T14:49:34.643Z,99970.00
2022-10-17T14:51:11.336Z,99982.00
2022-10-17T14:53:02.124Z,99982.00
2022-10-17T14:54:38.159Z,99982.00
2022-10-17T14:56:26.884Z,99988.00
2022-10-17T14:58:02.491Z,99986.00
2022-10-17T14:59:53.261Z,99992.00
2022-10-17T15:01:27.842Z,99993.00
2022-10-17T15:03:01.181Z,99997.00
2022-10-17T15:04:34.663Z,99994.00
2022-10-17T15:06:20.907Z,100006.00
2022-10-17T15:07:55.303Z,100010.00
2022-10-17T15:09:28.990Z,100010.00
2022-10-17T15:11:02.263Z,100009.00
2022-10-17T15:12:36.130Z,100011.00
2022-10-17T15:14:11.558Z,100024.00
2022-10-17T15:15:45.931Z,100024.00
2022-10-17T15:17:22.475Z,100021.00
2022-10-17T15:18:55.885Z,100029.00
2022-10-17T15:20:30.474Z,100025.00
2022-10-17T15:22:04.048Z,100032.00
2022-10-17T15:23:37.330Z,100034.00
2022-10-17T15:25:11.111Z,100026.00
2022-10-17T15:26:44.533Z,100031.00
2022-10-17T15:28:17.860Z,100040.00
2022-10-17T15:29:54.997Z,100032.00
2022-10-17T15:31:32.183Z,100040.00
2022-10-17T15:33:11.236Z,100037.00
2022-10-17T15:34:48.855Z,100031.00
2022-10-17T15:36:33.412Z,100040.00
2022-10-17T15:38:15.224Z,100043.00
2022-10-17T15:39:53.816Z,100037.00
2022-10-17T15:41:37.823Z,100048.00
2022-10-17T15:43:16.122Z,100042.00
2022-10-17T15:44:57.184Z,100051.00
2022-10-17T15:46:34.967Z,100045.00
2022-10-17T15:48:20.017Z,100048.00
2022-10-17T15:49:56.382Z,100061.00
2022-10-17T15:51:32.148Z,100057.00
2022-10-17T15:53:12.627Z,100054.00
2022-10-17T15:54:47.219Z,100047.00
2022-10-17T15:56:27.063Z,100059.00
2022-10-17T15:58:00.364Z,100051.00
2022-10-17T15:59:37.423Z,100058.00
2022-10-17T16:01:22.301Z,100059.00
2022-10-17T16:02:55.936Z,100054.00
2022-10-17T16:04:30.568Z,100056.00
2022-10-17T16:06:03.791Z,100052.00
2022-10-17T16:07:37.613Z,100057.00
2022-10-17T16:09:11.344Z,100047.00
2022-10-17T16:10:44.730Z,100064.00
2022-10-17T16:14:05.322Z,100084.00
2022-10-17T16:15:38.712Z,100080.00
2022-10-17T16:17:16.258Z,100089.00
2022-10-17T16:18:49.945Z,100096.00
2022-10-17T16:20:24.608Z,100099.00
2022-10-17T16:22:03.666Z,100104.00
2022-10-17T16:23:38.044Z,100106.00
2022-10-17T16:25:23.379Z,100115.00
2022-10-17T16:26:56.648Z,100110.00
2022-10-17T16:28:30.165Z,100126.00
2022-10-17T16:30:03.663Z,100132.00
2022-10-17T16:31:42.878Z,100140.00
2022-10-17T16:33:17.446Z,100125.00
2022-10-17T16:34:51.018Z,100129.00
2022-10-17T16:36:25.023Z,100132.00
2022-10-17T16:37:58.431Z,100129.00
2022-10-17T16:39:31.782Z,100125.00
2022-10-17T16:41:05.207Z,100128.00
2022-10-17T16:42:38.495Z,100138.00
2022-10-17T16:44:14.482Z,100137.00
2022-10-17T16:45:47.840Z,100141.00
2022-10-17T16:47:21.597Z,100150.00
2022-10-17T16:48:56.610Z,100145.00
2022-10-17T16:50:31.773Z,100147.00
2022-10-17T16:52:05.393Z,100150.00
2022-10-17T16:53:43.478Z,100150.00
2022-10-17T16:55:18.721Z,100144.00
2022-10-17T16:56:52.166Z,100163.00
2022-10-17T16:58:27.350Z,100162.00
2022-10-17T17:00:00.720Z,100158.00
2022-10-17T17:01:34.038Z,100161.00
2022-10-17T17:03:07.656Z,100169.00
2022-10-17T17:04:42.715Z,100162.00
2022-10-17T17:06:19.525Z,100172.00
2022-10-17T17:07:53.228Z,100162.00
2022-10-17T17:09:26.591Z,100156.00
2022-10-17T17:11:00.130Z,100157.00
2022-10-17T17:12:34.395Z,100151.00
2022-10-17T17:14:09.985Z,100156.00
2022-10-17T17:17:30.142Z,100153.00
2022-10-17T17:19:14.415Z,100154.00
2022-10-17T17:20:49.276Z,100154.00
2022-10-17T17:22:22.704Z,100161.00
2022-10-17T17:23:58.231Z,100157.00
2022-10-17T17:25:31.640Z,100155.00
2022-10-17T17:27:06.941Z,100160.00
2022-10-17T17:28:43.279Z,100175.00
2022-10-17T17:30:17.003Z,100159.00
2022-10-17T17:31:51.419Z,100156.00
2022-10-17T17:33:26.015Z,100154.00
2022-10-17T17:34:59.319Z,100154.00
2022-10-17T17:36:36.727Z,100166.00
2022-10-17T17:38:10.002Z,100170.00
2022-10-17T17:39:44.184Z,100171.00
2022-10-17T17:41:20.173Z,100170.00
2022-10-17T17:42:53.512Z,100172.00
2022-10-17T17:44:27.120Z,100173.00
2022-10-17T17:46:03.172Z,100172.00
2022-10-17T17:47:36.464Z,100160.00
2022-10-17T17:49:10.702Z,100170.00
2022-10-17T17:50:46.135Z,100183.00
2022-10-17T17:52:21.099Z,100174.00
2022-10-17T17:53:54.231Z,100176.00
2022-10-17T17:55:27.710Z,100179.00
2022-10-17T17:57:01.117Z,100183.00
2022-10-17T17:58:35.908Z,100189.00
2022-10-17T18:00:10.751Z,100186.00
2022-10-17T18:01:44.817Z,100192.00
2022-10-17T18:03:18.284Z,100202.00
2022-10-17T18:04:51.606Z,100200.00
2022-10-17T18:06:24.951Z,100203.00
2022-10-17T18:07:59.816Z,100195.00
2022-10-17T18:09:33.062Z,100199.00
2022-10-17T18:11:07.755Z,100201.00
2022-10-17T18:12:41.013Z,100200.00
2022-10-17T18:14:14.605Z,100204.00
2022-10-17T18:15:51.631Z,100207.00
2022-10-17T18:17:25.187Z,100202.00
2022-10-17T18:19:04.077Z,100200.00
2022-10-17T18:20:42.841Z,100200.00
2022-10-17T18:22:16.329Z,100188.00
2022-10-17T18:23:53.439Z,100191.00
2022-10-17T18:25:26.971Z,100196.00
2022-10-17T18:27:00.604Z,100198.00
2022-10-17T18:28:35.486Z,100201.00
2022-10-17T18:30:10.681Z,100201.00
2022-10-17T18:31:44.312Z,100206.00
2022-10-17T18:33:17.871Z,100205.00
2022-10-17T18:34:51.175Z,100202.00
2022-10-17T18:36:29.350Z,100197.00
2022-10-17T18:38:02.713Z,100201.00
2022-10-17T18:39:37.471Z,100205.00
2022-10-17T18:41:13.427Z,100210.00
2022-10-17T18:42:46.783Z,100216.00
2022-10-17T18:44:20.311Z,100208.00
2022-10-17T18:45:57.963Z,100206.00
2022-10-17T18:47:32.001Z,100214.00
2022-10-17T18:49:05.828Z,100206.00
2022-10-17T18:50:40.331Z,100208.00
2022-10-17T18:52:13.749Z,100216.00
2022-10-17T18:53:49.900Z,100214.00
2022-10-17T18:55:24.978Z,100207.00
2022-10-17T18:56:58.429Z,100218.00
2022-10-17T18:58:33.366Z,100222.00
2022-10-17T19:00:09.154Z,100210.00
2022-10-17T19:01:43.427Z,100212.00
2022-10-17T19:03:17.176Z,100218.00
2022-10-17T19:04:51.256Z,100213.00
2022-10-17T19:06:27.763Z,100217.00
2022-10-17T19:08:01.262Z,100225.00
2022-10-17T19:09:34.856Z,100225.00
2022-10-17T19:11:12.808Z,100236.00
2022-10-17T19:12:46.119Z,100228.00
2022-10-17T19:14:19.644Z,100235.00
2022-10-17T19:15:52.999Z,100228.00
2022-10-17T19:17:26.350Z,100227.00
2022-10-17T19:19:07.825Z,100225.00
2022-10-17T19:20:41.444Z,100222.00
2022-10-17T19:22:14.813Z,100226.00
2022-10-17T19:23:52.544Z,100233.00
2022-10-17T19:25:30.452Z,100223.00
2022-10-17T19:27:06.779Z,100232.00